Kilbourne, Ohio
Current Conditions -  °F | °C
As of 1:20 PM on Friday 28 Nov 2014 (Local Time) from KDLZ Reporting Station
Overcast Overcast  
Wind Chill: 19°   Ceiling: 3900
Heat Index: 28°   Visibility: 10mi
Dew Point: 18°   Wind: 10mph
Humidity: 64%   Direction: 200°SSW
Pressure: 30.28"   Gusts: NA
Location:  40.33°N, 82.96°W
Report Text: KDLZ 281820Z AUTO 20009KT 10SM SCT025 BKN039 OVC050 M02/M08 A3028 RMK AO2
Loading
Personal Weather Stations






























Interactive Weather Map New forecast layout! Learn more

10-Day Weather Forecast

Advertisements
Track Severe Weather on mobile